Time;durP1;ratioP1;P1;durP2;ratioP2;P2;SDS_P1;SDS_P2;PMS_P1;PMS_P2;Temp;Humidity;BMP_temperature;BMP_pressure;BME280_temperature;BME280_humidity;BME280_pressure;Samples;Min_cycle;Max_cycle;Signal;HPM_P1;HPM_P2
2023/04/30 00:01:02;;;;;;;16.23;5.93;;;;;;;;;;5018964;28;20055;-74
2023/04/30 00:03:28;;;;;;;12.13;6.15;;;;;;;;;;5024576;28;20057;-74
2023/04/30 00:05:54;;;;;;;12.65;5.80;;;;;;;;;;5020623;28;20060;-74
2023/04/30 00:08:21;;;;;;;13.68;6.43;;;;;;;;;;5017485;28;20056;-75
2023/04/30 00:10:47;;;;;;;15.35;6.15;;;;;;;;;;5033327;28;20041;-74
2023/04/30 00:13:13;;;;;;;12.65;6.78;;;;;;;;;;5022275;28;20123;-74
2023/04/30 00:15:40;;;;;;;14.60;6.72;;;;;;;;;;5036860;28;20044;-74
2023/04/30 00:18:06;;;;;;;17.05;6.93;;;;;;;;;;5019303;28;20057;-73
2023/04/30 00:20:34;;;;;;;18.33;7.70;;;;;;;;;;5033909;28;20049;-74
2023/04/30 00:23:00;;;;;;;14.63;6.13;;;;;;;;;;5002832;28;20049;-74
2023/04/30 00:25:26;;;;;;;13.23;6.75;;;;;;;;;;5039946;28;20106;-73
2023/04/30 00:27:52;;;;;;;13.15;6.07;;;;;;;;;;5019590;28;20084;-73
2023/04/30 00:30:18;;;;;;;13.90;6.90;;;;;;;;;;5038102;28;20056;-75
2023/04/30 00:32:47;;;;;;;15.90;6.82;;;;;;;;;;5039366;28;20041;-73
2023/04/30 00:35:13;;;;;;;;;;;;;;;;;;5016321;28;20063;-74
2023/04/30 00:37:39;;;;;;;14.52;6.03;;;;;;;;;;5038203;28;19979;-74
2023/04/30 00:40:05;;;;;;;11.77;6.03;;;;;;;;;;5020351;28;20446;-74
2023/04/30 00:42:31;;;;;;;18.00;6.82;;;;;;;;;;5015716;28;20115;-74
2023/04/30 00:44:57;;;;;;;13.27;5.82;;;;;;;;;;5021269;28;20385;-73
2023/04/30 00:47:23;;;;;;;12.13;6.25;;;;;;;;;;5021300;28;20051;-74
2023/04/30 00:49:49;;;;;;;11.85;5.60;;;;;;;;;;5021561;28;20563;-74
2023/04/30 00:52:15;;;;;;;10.90;6.38;;;;;;;;;;5017004;28;20037;-73
2023/04/30 00:54:41;;;;;;;13.02;5.43;;;;;;;;;;5020890;28;20090;-73
2023/04/30 00:57:09;;;;;;;17.95;7.25;;;;;;;;;;5016723;28;20496;-73
2023/04/30 00:59:36;;;;;;;15.82;7.25;;;;;;;;;;5019816;28;20513;-74
2023/04/30 01:02:02;;;;;;;17.45;7.10;;;;;;;;;;5016999;28;20067;-74
2023/04/30 01:04:28;;;;;;;14.63;7.50;;;;;;;;;;5023347;28;20390;-73
2023/04/30 01:06:55;;;;;;;19.88;7.32;;;;;;;;;;5019103;28;20060;-73
2023/04/30 01:09:21;;;;;;;13.98;6.68;;;;;;;;;;5026385;28;20049;-73
2023/04/30 01:11:51;;;;;;;12.57;6.30;;;;;;;;;;5021876;28;20065;-73
2023/04/30 01:14:20;;;;;;;11.90;7.05;;;;;;;;;;5031011;28;20048;-73
2023/04/30 01:17:12;;;;;;;13.43;6.65;;;;;;;;;;5038651;28;20114;-74
2023/04/30 01:19:43;;;;;;;14.20;6.43;;;;;;;;;;4986781;28;20067;-74
2023/04/30 01:22:14;;;;;;;11.48;6.35;;;;;;;;;;5036943;28;20052;-74
2023/04/30 01:24:53;;;;;;;14.48;7.63;;;;;;;;;;5039130;28;20098;-73
2023/04/30 01:27:31;;;;;;;17.60;6.55;;;;;;;;;;5033295;28;20064;-73
2023/04/30 01:29:57;;;;;;;16.70;6.30;;;;;;;;;;5039372;28;20465;-74
2023/04/30 01:32:23;;;;;;;19.85;8.40;;;;;;;;;;5031285;28;20072;-73
2023/04/30 01:34:49;;;;;;;17.73;8.10;;;;;;;;;;5038181;28;20519;-74
2023/04/30 01:37:19;;;;;;;16.08;8.30;;;;;;;;;;5021469;28;20056;-74
2023/04/30 01:39:57;;;;;;;13.70;6.82;;;;;;;;;;5002886;28;20053;-74
2023/04/30 01:42:28;;;;;;;16.95;6.25;;;;;;;;;;5019383;28;20059;-74
2023/04/30 01:45:03;;;;;;;13.35;7.05;;;;;;;;;;5012722;28;20844;-74
2023/04/30 01:47:44;;;;;;;13.63;7.72;;;;;;;;;;5016049;28;20041;-73
2023/04/30 01:50:20;;;;;;;16.55;8.35;;;;;;;;;;5021061;28;20049;-74
2023/04/30 01:52:49;;;;;;;10.93;6.90;;;;;;;;;;5012409;28;20521;-74
2023/04/30 01:55:36;;;;;;;16.42;7.65;;;;;;;;;;5018563;28;20137;-74
2023/04/30 01:58:06;;;;;;;12.52;7.32;;;;;;;;;;5017792;28;20041;-74
2023/04/30 02:00:33;;;;;;;11.40;7.03;;;;;;;;;;5021046;28;20094;-75
2023/04/30 02:02:59;;;;;;;16.30;8.00;;;;;;;;;;5036821;28;20099;-74
2023/04/30 02:05:25;;;;;;;14.73;7.70;;;;;;;;;;5022929;28;20048;-74
2023/04/30 02:07:52;;;;;;;15.50;8.25;;;;;;;;;;5026143;28;20052;-74
2023/04/30 02:10:20;;;;;;;13.73;6.47;;;;;;;;;;5021735;28;20052;-73
2023/04/30 02:12:46;;;;;;;12.15;5.88;;;;;;;;;;5041012;28;20455;-74
2023/04/30 02:15:12;;;;;;;17.65;8.23;;;;;;;;;;5039603;28;20036;-73
2023/04/30 02:17:38;;;;;;;15.38;6.78;;;;;;;;;;5021915;28;20044;-75
2023/04/30 02:20:05;;;;;;;20.63;8.70;;;;;;;;;;5032332;28;20044;-74
2023/04/30 02:22:31;;;;;;;12.27;7.22;;;;;;;;;;5026841;28;20077;-74
2023/04/30 02:24:57;;;;;;;16.20;8.02;;;;;;;;;;5038973;28;20152;-74
2023/04/30 02:27:23;;;;;;;11.88;6.65;;;;;;;;;;5022685;28;20053;-74
2023/04/30 02:29:49;;;;;;;16.05;8.43;;;;;;;;;;5022806;28;20198;-75
2023/04/30 02:32:15;;;;;;;14.23;7.22;;;;;;;;;;5039353;28;20041;-74
2023/04/30 02:34:42;;;;;;;15.15;7.35;;;;;;;;;;5042583;28;20048;-75
2023/04/30 02:37:08;;;;;;;16.48;8.75;;;;;;;;;;5020525;28;20928;-75
2023/04/30 02:39:34;;;;;;;16.63;7.78;;;;;;;;;;5041225;28;20405;-74
2023/04/30 02:42:00;;;;;;;15.10;8.15;;;;;;;;;;5025378;28;20504;-74
2023/04/30 02:44:26;;;;;;;13.90;7.68;;;;;;;;;;5039124;28;20045;-74
2023/04/30 02:46:52;;;;;;;14.50;7.45;;;;;;;;;;5024952;28;20063;-75
2023/04/30 02:49:18;;;;;;;15.52;6.68;;;;;;;;;;5039713;28;20566;-75
2023/04/30 02:51:44;;;;;;;14.93;7.05;;;;;;;;;;5020844;28;20051;-72
2023/04/30 02:54:10;;;;;;;14.30;6.40;;;;;;;;;;5023743;28;20114;-72
2023/04/30 02:56:37;;;;;;;13.65;7.10;;;;;;;;;;5042141;28;20967;-74
2023/04/30 02:59:03;;;;;;;13.45;7.93;;;;;;;;;;5039904;28;20119;-72
2023/04/30 03:01:29;;;;;;;11.88;5.78;;;;;;;;;;5025617;28;20044;-73
2023/04/30 03:03:57;;;;;;;14.10;7.35;;;;;;;;;;5025992;28;20057;-74
2023/04/30 03:06:23;;;;;;;19.85;7.68;;;;;;;;;;5019581;28;20052;-75
2023/04/30 03:08:49;;;;;;;12.98;6.75;;;;;;;;;;5040173;28;20047;-74
2023/04/30 03:11:15;;;;;;;17.67;7.18;;;;;;;;;;5038855;28;20099;-74
2023/04/30 03:13:42;;;;;;;14.55;7.20;;;;;;;;;;5022774;28;20057;-74
2023/04/30 03:16:08;;;;;;;22.33;8.43;;;;;;;;;;5035046;28;20056;-74
2023/04/30 03:18:36;;;;;;;14.73;7.85;;;;;;;;;;5025547;28;20052;-74
2023/04/30 03:21:02;;;;;;;15.43;7.15;;;;;;;;;;5021821;28;20432;-74
2023/04/30 03:23:28;;;;;;;11.82;5.75;;;;;;;;;;5022275;28;20041;-74
2023/04/30 03:25:54;;;;;;;11.32;6.70;;;;;;;;;;5024416;28;20182;-74
2023/04/30 03:28:20;;;;;;;13.15;7.30;;;;;;;;;;5022155;28;20067;-74
2023/04/30 03:30:46;;;;;;;17.17;6.63;;;;;;;;;;5021544;28;20048;-75
2023/04/30 03:33:12;;;;;;;18.30;8.32;;;;;;;;;;5028866;28;20079;-74
2023/04/30 03:35:38;;;;;;;14.45;7.43;;;;;;;;;;5035669;28;20080;-75
2023/04/30 03:38:04;;;;;;;11.75;7.40;;;;;;;;;;5038388;28;20256;-75
2023/04/30 03:40:30;;;;;;;18.88;9.75;;;;;;;;;;5020658;28;20599;-74
2023/04/30 03:42:56;;;;;;;16.83;9.90;;;;;;;;;;5023428;28;20041;-74
2023/04/30 03:45:22;;;;;;;21.08;10.00;;;;;;;;;;5020723;28;20061;-75
2023/04/30 03:47:49;;;;;;;18.63;8.30;;;;;;;;;;5041444;28;20041;-74
2023/04/30 03:50:17;;;;;;;20.08;11.07;;;;;;;;;;5002280;28;20044;-73
2023/04/30 03:52:42;;;;;;;17.35;8.57;;;;;;;;;;5040335;28;20045;-74
2023/04/30 03:55:09;;;;;;;17.63;8.80;;;;;;;;;;5022557;28;20564;-75
2023/04/30 03:57:35;;;;;;;17.35;10.77;;;;;;;;;;5020017;28;20094;-75
2023/04/30 04:00:01;;;;;;;20.63;9.35;;;;;;;;;;5006509;28;20044;-75
2023/04/30 04:02:27;;;;;;;22.25;10.88;;;;;;;;;;5020868;28;20043;-75
2023/04/30 04:04:53;;;;;;;23.98;8.85;;;;;;;;;;5039469;28;20041;-74
2023/04/30 04:07:20;;;;;;;14.98;9.93;;;;;;;;;;5038139;28;20124;-74
2023/04/30 04:09:46;;;;;;;20.08;8.25;;;;;;;;;;5027339;28;20053;-74
2023/04/30 04:12:12;;;;;;;23.35;11.68;;;;;;;;;;5018698;28;20048;-75
2023/04/30 04:14:38;;;;;;;23.42;11.15;;;;;;;;;;5024099;28;20041;-74
2023/04/30 04:17:04;;;;;;;21.80;10.82;;;;;;;;;;5004685;28;20076;-75
2023/04/30 04:19:30;;;;;;;18.00;10.13;;;;;;;;;;5019967;28;20052;-74
2023/04/30 04:21:56;;;;;;;20.42;11.00;;;;;;;;;;5019958;28;20045;-74
2023/04/30 04:24:24;;;;;;;17.70;10.63;;;;;;;;;;5021761;28;20057;-73
2023/04/30 04:26:50;;;;;;;17.33;10.02;;;;;;;;;;5017284;28;20053;-74
2023/04/30 04:29:16;;;;;;;17.83;9.48;;;;;;;;;;5039878;28;20091;-75
2023/04/30 04:31:43;;;;;;;46.22;9.88;;;;;;;;;;5039060;28;20688;-74
2023/04/30 04:34:09;;;;;;;101.55;17.63;;;;;;;;;;5036264;28;20124;-74
2023/04/30 04:36:35;;;;;;;17.23;10.35;;;;;;;;;;5025000;28;20439;-74
2023/04/30 04:39:01;;;;;;;20.27;11.90;;;;;;;;;;5020244;28;20041;-74
2023/04/30 04:41:31;;;;;;;18.08;9.65;;;;;;;;;;5018846;28;20045;-74
2023/04/30 04:43:57;;;;;;;19.65;11.00;;;;;;;;;;5022054;28;20052;-75
2023/04/30 04:46:24;;;;;;;19.30;9.27;;;;;;;;;;5035156;28;20753;-74
2023/04/30 04:48:50;;;;;;;13.65;9.00;;;;;;;;;;5007487;28;20053;-74
2023/04/30 04:51:16;;;;;;;24.92;10.57;;;;;;;;;;5039571;28;20044;-74
2023/04/30 04:53:42;;;;;;;20.27;12.90;;;;;;;;;;5023508;28;20141;-74
2023/04/30 04:56:08;;;;;;;23.98;11.82;;;;;;;;;;5039076;28;20055;-74
2023/04/30 04:58:34;;;;;;;20.88;13.55;;;;;;;;;;5025797;28;20049;-74
2023/04/30 05:01:01;;;;;;;21.23;14.23;;;;;;;;;;5037331;28;20676;-73
2023/04/30 05:03:28;;;;;;;25.90;15.30;;;;;;;;;;5018636;28;20079;-74
2023/04/30 05:05:54;;;;;;;23.13;12.90;;;;;;;;;;5023490;28;20661;-74
2023/04/30 05:08:20;;;;;;;18.08;12.90;;;;;;;;;;5021206;28;20086;-72
2023/04/30 05:10:46;;;;;;;19.48;11.52;;;;;;;;;;5023622;28;20044;-74
2023/04/30 05:13:12;;;;;;;21.80;13.82;;;;;;;;;;5043064;28;20424;-74
2023/04/30 05:15:38;;;;;;;30.33;15.85;;;;;;;;;;5020693;28;20125;-73
2023/04/30 05:18:04;;;;;;;24.75;15.60;;;;;;;;;;5023137;28;20558;-73
2023/04/30 05:20:30;;;;;;;23.33;16.30;;;;;;;;;;5037575;28;20123;-74
2023/04/30 05:22:56;;;;;;;25.40;16.70;;;;;;;;;;5045442;28;20043;-73
2023/04/30 05:25:22;;;;;;;31.02;17.67;;;;;;;;;;5018251;28;20492;-74
2023/04/30 05:27:49;;;;;;;21.48;15.65;;;;;;;;;;5025811;28;20053;-74
2023/04/30 05:30:15;;;;;;;23.75;14.05;;;;;;;;;;5017364;28;20056;-73
2023/04/30 05:32:41;;;;;;;20.67;12.75;;;;;;;;;;5021949;28;20045;-72
2023/04/30 05:35:08;;;;;;;19.13;11.30;;;;;;;;;;5021241;28;20083;-73
2023/04/30 05:37:34;;;;;;;23.45;12.75;;;;;;;;;;5036989;28;20044;-73
2023/04/30 05:40:00;;;;;;;23.08;13.50;;;;;;;;;;5025565;28;20200;-74
2023/04/30 05:42:26;;;;;;;22.13;10.73;;;;;;;;;;5024641;28;20065;-73
2023/04/30 05:44:52;;;;;;;19.73;10.23;;;;;;;;;;5019416;28;20048;-74
2023/04/30 05:47:18;;;;;;;19.55;9.98;;;;;;;;;;5023769;28;20109;-74
2023/04/30 05:49:44;;;;;;;21.17;10.02;;;;;;;;;;5024941;28;20049;-74
2023/04/30 05:52:10;;;;;;;20.63;10.75;;;;;;;;;;5019726;28;20037;-74
2023/04/30 05:54:36;;;;;;;23.98;9.90;;;;;;;;;;5041126;28;20496;-73
2023/04/30 05:57:02;;;;;;;21.17;9.82;;;;;;;;;;5025282;28;20033;-73
2023/04/30 05:59:28;;;;;;;18.98;7.78;;;;;;;;;;5016527;28;20056;-74
2023/04/30 06:01:54;;;;;;;15.25;7.75;;;;;;;;;;5020821;28;20037;-74
2023/04/30 06:04:20;;;;;;;15.13;8.07;;;;;;;;;;5022985;28;20871;-74
2023/04/30 06:06:46;;;;;;;18.73;8.52;;;;;;;;;;5038766;28;20052;-74
2023/04/30 06:09:12;;;;;;;19.25;7.88;;;;;;;;;;5041730;28;20543;-75
2023/04/30 06:11:38;;;;;;;19.25;8.23;;;;;;;;;;5025813;28;20033;-73
2023/04/30 06:14:06;;;;;;;21.55;7.43;;;;;;;;;;5020857;28;20072;-73
2023/04/30 06:16:32;;;;;;;15.93;7.07;;;;;;;;;;5024685;28;20107;-74
2023/04/30 06:18:58;;;;;;;18.20;7.35;;;;;;;;;;5024121;28;20049;-74
2023/04/30 06:21:26;;;;;;;21.00;6.68;;;;;;;;;;5023944;28;20166;-74
2023/04/30 06:23:53;;;;;;;;;;;;;;;;;;5042689;28;20059;-74
2023/04/30 06:26:19;;;;;;;14.48;6.40;;;;;;;;;;5038727;28;19932;-74
2023/04/30 06:28:45;;;;;;;20.92;6.85;;;;;;;;;;5018878;28;20060;-74
2023/04/30 06:31:12;;;;;;;14.98;5.90;;;;;;;;;;5035773;28;20132;-74
2023/04/30 06:33:38;;;;;;;15.18;5.85;;;;;;;;;;5018954;28;20092;-75
2023/04/30 06:36:04;;;;;;;26.55;6.85;;;;;;;;;;5018982;28;20057;-74
2023/04/30 06:38:30;;;;;;;19.33;6.30;;;;;;;;;;5019974;28;20041;-73
2023/04/30 06:40:57;;;;;;;17.02;5.72;;;;;;;;;;5020159;28;20480;-74
2023/04/30 06:43:24;;;;;;;12.73;5.60;;;;;;;;;;5015872;28;20056;-74
2023/04/30 06:45:50;;;;;;;22.55;5.40;;;;;;;;;;5005328;28;20247;-74
2023/04/30 06:48:16;;;;;;;15.68;5.30;;;;;;;;;;4999669;28;20679;-74
2023/04/30 06:50:44;;;;;;;17.33;5.45;;;;;;;;;;5020242;28;20041;-74
2023/04/30 06:53:10;;;;;;;;;;;;;;;;;;5036053;28;20048;-74
2023/04/30 06:55:36;;;;;;;10.55;4.55;;;;;;;;;;5018455;28;20355;-74
2023/04/30 06:58:04;;;;;;;16.20;5.43;;;;;;;;;;5019383;28;20073;-74
2023/04/30 07:00:30;;;;;;;16.60;5.05;;;;;;;;;;5019537;28;20049;-74
2023/04/30 07:02:59;;;;;;;14.85;4.65;;;;;;;;;;5035372;28;20037;-74
2023/04/30 07:05:25;;;;;;;16.73;5.05;;;;;;;;;;5017644;28;20057;-74
2023/04/30 07:07:51;;;;;;;18.05;4.55;;;;;;;;;;5035850;28;20145;-73
2023/04/30 07:10:18;;;;;;;13.40;4.68;;;;;;;;;;5035357;28;20054;-73
2023/04/30 07:12:44;;;;;;;13.43;4.70;;;;;;;;;;5016427;28;20041;-73
2023/04/30 07:15:10;;;;;;;16.60;5.38;;;;;;;;;;5034779;28;20042;-73
2023/04/30 07:17:37;;;;;;;16.92;5.43;;;;;;;;;;5016765;28;20094;-73
2023/04/30 07:20:03;;;;;;;16.58;5.18;;;;;;;;;;5020408;28;20049;-74
2023/04/30 07:22:30;;;;;;;12.30;3.80;;;;;;;;;;5019761;28;20626;-73
2023/04/30 07:24:56;;;;;;;14.05;3.40;;;;;;;;;;5021559;28;20137;-74
2023/04/30 07:27:22;;;;;;;13.93;4.10;;;;;;;;;;5032953;28;20065;-74
2023/04/30 07:29:48;;;;;;;15.68;4.05;;;;;;;;;;5001014;28;20050;-74
2023/04/30 07:32:15;;;;;;;14.40;3.70;;;;;;;;;;5000163;28;20041;-74
2023/04/30 07:34:41;;;;;;;13.20;3.53;;;;;;;;;;4996984;28;20056;-74
2023/04/30 07:37:08;;;;;;;16.92;3.80;;;;;;;;;;5004206;28;20080;-73
2023/04/30 07:39:35;;;;;;;13.35;3.42;;;;;;;;;;4998612;28;20052;-75
2023/04/30 07:42:02;;;;;;;10.27;3.33;;;;;;;;;;4984684;28;20049;-74
2023/04/30 07:44:29;;;;;;;14.63;3.50;;;;;;;;;;5462035;23;20054;-73
2023/04/30 07:46:55;;;;;;;14.98;3.92;;;;;;;;;;5059405;28;20455;-74
2023/04/30 07:49:21;;;;;;;13.45;3.45;;;;;;;;;;5032854;28;20052;-73
2023/04/30 07:51:47;;;;;;;16.73;3.38;;;;;;;;;;5052381;28;20119;-74
2023/04/30 07:54:13;;;;;;;12.38;3.90;;;;;;;;;;5057352;28;20036;-73
2023/04/30 07:56:40;;;;;;;10.65;3.55;;;;;;;;;;5072374;28;20029;-74
2023/04/30 07:59:06;;;;;;;11.70;3.55;;;;;;;;;;5051167;28;20043;-74
2023/04/30 08:01:32;;;;;;;16.50;3.20;;;;;;;;;;5054888;28;20048;-73
2023/04/30 08:03:58;;;;;;;12.65;3.40;;;;;;;;;;5050052;28;20158;-74
2023/04/30 08:06:26;;;;;;;14.40;3.30;;;;;;;;;;5057838;28;20513;-74
2023/04/30 08:08:52;;;;;;;8.60;3.20;;;;;;;;;;5075163;28;20130;-74
2023/04/30 08:11:18;;;;;;;11.00;3.47;;;;;;;;;;5045752;28;20596;-74
2023/04/30 08:13:45;;;;;;;10.00;3.78;;;;;;;;;;5047957;28;20684;-74
2023/04/30 08:16:11;;;;;;;12.30;3.55;;;;;;;;;;5070997;28;20072;-74
2023/04/30 08:18:43;;;;;;;13.88;4.25;;;;;;;;;;5044611;28;20079;-73
2023/04/30 08:21:10;;;;;;;9.90;3.95;;;;;;;;;;5070636;28;20075;-74
2023/04/30 08:23:36;;;;;;;12.88;3.65;;;;;;;;;;5047016;28;20055;-73
2023/04/30 08:26:02;;;;;;;8.93;3.05;;;;;;;;;;5049811;28;20043;-74
2023/04/30 08:28:28;;;;;;;10.18;3.60;;;;;;;;;;5069309;28;20036;-74
2023/04/30 08:30:54;;;;;;;13.40;3.80;;;;;;;;;;5062435;28;21025;-74
2023/04/30 08:33:20;;;;;;;12.45;3.45;;;;;;;;;;5050112;28;20066;-74
2023/04/30 08:35:46;;;;;;;9.50;3.60;;;;;;;;;;5048535;28;20843;-74
2023/04/30 08:38:12;;;;;;;10.18;3.28;;;;;;;;;;5044032;28;20052;-74
2023/04/30 08:40:39;;;;;;;9.90;3.00;;;;;;;;;;5055363;28;20128;-75
2023/04/30 08:43:18;;;;;;;14.38;3.60;;;;;;;;;;5038083;28;20048;-74
2023/04/30 08:45:47;;;;;;;13.50;3.28;;;;;;;;;;5079449;28;20567;-75
2023/04/30 08:48:20;;;;;;;14.10;3.60;;;;;;;;;;5074450;28;21288;-73
2023/04/30 08:50:47;;;;;;;15.70;3.42;;;;;;;;;;5050590;28;20055;-73
2023/04/30 08:53:16;;;;;;;13.80;3.40;;;;;;;;;;5047207;28;20047;-74
2023/04/30 08:55:42;;;;;;;13.68;3.63;;;;;;;;;;5045566;28;20094;-75
2023/04/30 08:58:09;;;;;;;15.45;3.72;;;;;;;;;;5049715;28;20047;-74
2023/04/30 09:00:37;;;;;;;10.38;3.30;;;;;;;;;;5053101;28;20434;-74
2023/04/30 09:03:04;;;;;;;10.95;3.58;;;;;;;;;;5069492;28;20491;-74
2023/04/30 09:05:30;;;;;;;13.10;3.70;;;;;;;;;;5062153;28;20040;-75
2023/04/30 09:07:59;;;;;;;13.77;4.13;;;;;;;;;;5049352;28;20047;-74
2023/04/30 09:10:26;;;;;;;13.32;3.60;;;;;;;;;;5023840;28;20170;-74
2023/04/30 09:13:06;;;;;;;15.43;3.83;;;;;;;;;;5033235;28;20063;-73
2023/04/30 09:15:33;;;;;;;8.07;3.17;;;;;;;;;;5053984;28;20515;-73
2023/04/30 09:18:13;;;;;;;10.15;3.22;;;;;;;;;;5053768;28;20731;-74
2023/04/30 09:20:53;;;;;;;10.68;3.28;;;;;;;;;;5071366;28;20055;-75
2023/04/30 09:23:19;;;;;;;11.82;3.45;;;;;;;;;;5062553;28;20552;-74
2023/04/30 09:25:45;;;;;;;12.50;3.25;;;;;;;;;;5068195;28;20033;-73
2023/04/30 09:28:12;;;;;;;11.70;3.33;;;;;;;;;;5047129;28;20051;-73
2023/04/30 09:30:39;;;;;;;11.50;3.33;;;;;;;;;;5060893;28;20052;-74
2023/04/30 09:33:05;;;;;;;14.50;3.50;;;;;;;;;;5040430;28;20143;-74
2023/04/30 09:35:31;;;;;;;11.35;3.20;;;;;;;;;;5038477;28;20069;-72
2023/04/30 09:38:01;;;;;;;13.52;3.38;;;;;;;;;;5059351;28;20062;-74
2023/04/30 09:40:37;;;;;;;14.57;3.35;;;;;;;;;;5042028;28;20071;-73
2023/04/30 09:43:04;;;;;;;9.77;3.10;;;;;;;;;;5052866;28;20091;-74
2023/04/30 09:45:40;;;;;;;9.68;3.17;;;;;;;;;;5051624;28;20068;-74
2023/04/30 09:48:08;;;;;;;8.52;3.30;;;;;;;;;;5050588;28;20151;-73
2023/04/30 09:50:40;;;;;;;12.18;3.85;;;;;;;;;;5049477;28;20078;-74
2023/04/30 09:53:08;;;;;;;10.52;3.28;;;;;;;;;;5069194;28;20132;-73
2023/04/30 09:55:35;;;;;;;10.90;3.60;;;;;;;;;;5071131;28;20093;-73
2023/04/30 09:58:03;;;;;;;10.80;3.25;;;;;;;;;;5034563;28;20040;-73
2023/04/30 10:00:30;;;;;;;12.60;3.58;;;;;;;;;;5052656;28;20033;-73
2023/04/30 10:02:57;;;;;;;12.43;3.53;;;;;;;;;;5040988;28;20040;-73
2023/04/30 10:05:23;;;;;;;10.40;3.20;;;;;;;;;;5049351;28;20040;-74
2023/04/30 10:07:50;;;;;;;8.23;3.58;;;;;;;;;;5061440;28;20040;-73
2023/04/30 10:10:16;;;;;;;12.80;3.65;;;;;;;;;;5069181;28;20051;-73
2023/04/30 10:12:50;;;;;;;11.93;3.70;;;;;;;;;;5056979;28;20178;-73
2023/04/30 10:15:28;;;;;;;12.70;3.67;;;;;;;;;;5047386;28;20774;-73
2023/04/30 10:18:00;;;;;;;10.50;3.88;;;;;;;;;;5052460;28;20609;-73
2023/04/30 10:20:26;;;;;;;12.57;3.88;;;;;;;;;;5032166;28;20040;-73
2023/04/30 10:22:53;;;;;;;12.05;3.72;;;;;;;;;;5051875;28;20040;-73
2023/04/30 10:25:19;;;;;;;11.23;4.03;;;;;;;;;;5051474;28;20048;-72
2023/04/30 10:27:45;;;;;;;10.20;3.63;;;;;;;;;;5051118;28;20050;-73
2023/04/30 10:30:12;;;;;;;9.95;3.50;;;;;;;;;;5045889;28;20098;-73
2023/04/30 10:32:58;;;;;;;14.68;4.20;;;;;;;;;;5047111;28;20048;-73
2023/04/30 10:35:26;;;;;;;13.18;3.35;;;;;;;;;;5004389;28;20048;-73
2023/04/30 10:38:11;;;;;;;8.73;3.40;;;;;;;;;;5045767;28;20572;-73
2023/04/30 10:40:37;;;;;;;9.95;3.67;;;;;;;;;;5046863;28;20127;-72
2023/04/30 10:43:03;;;;;;;14.40;4.57;;;;;;;;;;5033540;28;20081;-73
2023/04/30 10:45:39;;;;;;;9.52;3.53;;;;;;;;;;5052956;28;20056;-72
2023/04/30 10:48:05;;;;;;;12.95;4.20;;;;;;;;;;5067742;28;20048;-72
2023/04/30 10:50:32;;;;;;;9.55;4.00;;;;;;;;;;5069659;28;20047;-72
2023/04/30 10:53:05;;;;;;;11.02;3.70;;;;;;;;;;5064137;28;20463;-73
2023/04/30 10:55:32;;;;;;;8.75;3.83;;;;;;;;;;5049219;28;20499;-73
2023/04/30 10:57:59;;;;;;;9.45;4.22;;;;;;;;;;5045887;28;20048;-73
2023/04/30 11:00:26;;;;;;;8.70;3.80;;;;;;;;;;5069789;28;20089;-72
2023/04/30 11:02:55;;;;;;;7.95;3.58;;;;;;;;;;5065940;28;20048;-73
2023/04/30 11:05:32;;;;;;;9.48;3.38;;;;;;;;;;5054481;28;20051;-73
2023/04/30 11:07:58;;;;;;;8.88;3.55;;;;;;;;;;5065819;28;20052;-73
2023/04/30 11:10:27;;;;;;;9.73;3.60;;;;;;;;;;5047157;28;20039;-74
2023/04/30 11:12:54;;;;;;;8.07;3.40;;;;;;;;;;5047526;28;20055;-73
2023/04/30 11:15:21;;;;;;;7.05;3.28;;;;;;;;;;5046587;28;20051;-74
2023/04/30 11:17:48;;;;;;;6.35;3.38;;;;;;;;;;5053720;28;20766;-74
2023/04/30 11:20:18;;;;;;;9.38;3.60;;;;;;;;;;5050991;28;20036;-74
2023/04/30 11:22:44;;;;;;;13.88;3.85;;;;;;;;;;5047659;28;20044;-74
2023/04/30 11:25:18;;;;;;;8.57;3.78;;;;;;;;;;5047027;28;20048;-74
2023/04/30 11:27:44;;;;;;;8.20;3.65;;;;;;;;;;5035842;28;20873;-73
2023/04/30 11:30:15;;;;;;;8.07;3.60;;;;;;;;;;5048299;28;20461;-74
2023/04/30 11:32:44;;;;;;;13.35;3.60;;;;;;;;;;5049622;28;20051;-74
2023/04/30 11:35:11;;;;;;;6.78;3.30;;;;;;;;;;5049618;28;20123;-74
2023/04/30 11:37:42;;;;;;;7.43;3.20;;;;;;;;;;5062063;28;20102;-73
2023/04/30 11:40:09;;;;;;;5.97;3.42;;;;;;;;;;5030054;28;20044;-74
2023/04/30 11:42:38;;;;;;;11.50;3.85;;;;;;;;;;5048915;28;20132;-74
2023/04/30 11:45:08;;;;;;;10.07;4.07;;;;;;;;;;5048581;28;20052;-73
2023/04/30 11:47:50;;;;;;;8.05;3.92;;;;;;;;;;5047960;28;20487;-73
2023/04/30 11:50:18;;;;;;;8.38;4.53;;;;;;;;;;5044200;28;20040;-74
2023/04/30 11:52:51;;;;;;;10.43;3.95;;;;;;;;;;5065850;28;20544;-75
2023/04/30 11:55:18;;;;;;;7.43;3.92;;;;;;;;;;5030961;28;20072;-74
2023/04/30 11:57:45;;;;;;;7.32;4.03;;;;;;;;;;5046436;28;20048;-75
2023/04/30 12:00:13;;;;;;;9.93;4.13;;;;;;;;;;5061268;28;20270;-74
2023/04/30 12:02:39;;;;;;;9.88;4.45;;;;;;;;;;5062385;28;20803;-74
2023/04/30 12:05:12;;;;;;;8.88;4.10;;;;;;;;;;5045118;28;20051;-75
2023/04/30 12:07:38;;;;;;;7.70;4.30;;;;;;;;;;5043580;28;20129;-74
2023/04/30 12:10:05;;;;;;;6.80;4.13;;;;;;;;;;5045056;28;20068;-74
2023/04/30 12:12:31;;;;;;;6.20;3.80;;;;;;;;;;5026729;28;20039;-74
2023/04/30 12:14:58;;;;;;;7.63;3.83;;;;;;;;;;5035644;28;20036;-74
2023/04/30 12:17:33;;;;;;;7.75;4.07;;;;;;;;;;5044824;28;20040;-75
2023/04/30 12:19:59;;;;;;;6.72;3.83;;;;;;;;;;5052226;28;20051;-72
2023/04/30 12:22:25;;;;;;;10.85;3.95;;;;;;;;;;5049190;28;20696;-73
2023/04/30 12:24:51;;;;;;;9.20;3.88;;;;;;;;;;5045856;28;20151;-72
2023/04/30 12:27:17;;;;;;;9.23;3.70;;;;;;;;;;5048175;28;20055;-73
2023/04/30 12:29:45;;;;;;;8.43;3.70;;;;;;;;;;5046979;28;20037;-73
2023/04/30 12:32:14;;;;;;;6.82;3.55;;;;;;;;;;5064380;28;20090;-73
2023/04/30 12:34:41;;;;;;;5.57;3.33;;;;;;;;;;5042798;28;20121;-73
2023/04/30 12:37:07;;;;;;;6.72;3.35;;;;;;;;;;5042870;28;20044;-73
2023/04/30 12:39:33;;;;;;;5.75;3.40;;;;;;;;;;5060551;28;20040;-73
2023/04/30 12:42:00;;;;;;;5.97;3.40;;;;;;;;;;5049716;28;20067;-72
2023/04/30 12:44:27;;;;;;;6.15;3.10;;;;;;;;;;5046755;28;20036;-73
2023/04/30 12:46:56;;;;;;;6.15;3.42;;;;;;;;;;5062686;28;20045;-73
2023/04/30 12:49:26;;;;;;;6.22;3.53;;;;;;;;;;5043496;28;20060;-73
2023/04/30 12:51:58;;;;;;;11.20;3.63;;;;;;;;;;5049516;28;20098;-74
2023/04/30 12:54:25;;;;;;;4.90;2.88;;;;;;;;;;5045330;28;20066;-74
2023/04/30 12:56:58;;;;;;;7.82;3.30;;;;;;;;;;5046522;28;20056;-73
2023/04/30 12:59:24;;;;;;;10.05;3.03;;;;;;;;;;5043025;28;20052;-74
2023/04/30 13:01:51;;;;;;;7.50;3.40;;;;;;;;;;5066305;28;20033;-73
2023/04/30 13:04:17;;;;;;;7.75;3.72;;;;;;;;;;5057616;28;20060;-73
2023/04/30 13:06:43;;;;;;;8.60;3.83;;;;;;;;;;5065538;28;20048;-72
2023/04/30 13:09:09;;;;;;;10.32;3.80;;;;;;;;;;5064250;28;20676;-72
2023/04/30 13:11:35;;;;;;;8.80;4.20;;;;;;;;;;5051077;28;20045;-73
2023/04/30 13:14:01;;;;;;;9.13;4.00;;;;;;;;;;5044899;28;20040;-74
2023/04/30 13:16:27;;;;;;;9.82;3.92;;;;;;;;;;5029523;28;20139;-72
2023/04/30 13:18:53;;;;;;;5.28;2.83;;;;;;;;;;5050544;28;20613;-74
2023/04/30 13:21:20;;;;;;;8.77;3.40;;;;;;;;;;5066261;28;20042;-74
2023/04/30 13:23:46;;;;;;;5.93;3.47;;;;;;;;;;5064379;28;20044;-73
2023/04/30 13:26:11;;;;;;;6.70;2.90;;;;;;;;;;5045176;28;20036;-74
2023/04/30 13:28:38;;;;;;;8.20;3.88;;;;;;;;;;5048439;28;20105;-74
2023/04/30 13:31:04;;;;;;;12.73;3.90;;;;;;;;;;5028110;28;20044;-74
2023/04/30 13:33:30;;;;;;;5.65;3.67;;;;;;;;;;5045400;28;20061;-73
2023/04/30 13:35:56;;;;;;;6.30;3.08;;;;;;;;;;5062330;28;20036;-74
2023/04/30 13:38:22;;;;;;;7.78;3.13;;;;;;;;;;5025956;28;20106;-74
2023/04/30 13:40:49;;;;;;;5.20;2.33;;;;;;;;;;5042138;28;20135;-74
2023/04/30 13:43:14;;;;;;;5.32;2.50;;;;;;;;;;5050561;28;20492;-73
2023/04/30 13:45:41;;;;;;;6.03;2.97;;;;;;;;;;5063786;28;20059;-74
2023/04/30 13:48:07;;;;;;;6.25;3.22;;;;;;;;;;5046903;28;20137;-74
2023/04/30 13:50:33;;;;;;;5.88;3.17;;;;;;;;;;5065916;28;20124;-76
2023/04/30 13:52:59;;;;;;;7.28;3.50;;;;;;;;;;5040615;28;20211;-74
2023/04/30 13:55:25;;;;;;;6.65;3.67;;;;;;;;;;5050790;28;20048;-74
2023/04/30 13:57:51;;;;;;;5.50;3.00;;;;;;;;;;5041639;28;20057;-75
2023/04/30 14:00:18;;;;;;;8.13;3.20;;;;;;;;;;5065025;28;20434;-73
2023/04/30 14:02:44;;;;;;;8.82;2.85;;;;;;;;;;5050773;28;20307;-74
2023/04/30 14:05:10;;;;;;;7.35;2.88;;;;;;;;;;5062215;28;20089;-73
2023/04/30 14:07:36;;;;;;;5.38;3.30;;;;;;;;;;5067144;28;20783;-73
2023/04/30 14:10:02;;;;;;;6.82;3.55;;;;;;;;;;5066388;28;20048;-73
2023/04/30 14:12:29;;;;;;;5.47;2.78;;;;;;;;;;5049410;28;20059;-74
2023/04/30 14:14:56;;;;;;;4.68;2.58;;;;;;;;;;5059320;28;20043;-74
2023/04/30 14:17:22;;;;;;;6.78;3.40;;;;;;;;;;5051832;28;20067;-74
2023/04/30 14:19:48;;;;;;;6.88;2.38;;;;;;;;;;5052406;28;20046;-75
2023/04/30 14:22:14;;;;;;;5.88;2.70;;;;;;;;;;5047973;28;20048;-75
2023/04/30 14:24:40;;;;;;;6.72;2.40;;;;;;;;;;5064910;28;20040;-75
2023/04/30 14:27:06;;;;;;;6.45;2.85;;;;;;;;;;5048844;28;20479;-75
2023/04/30 14:29:32;;;;;;;6.15;2.70;;;;;;;;;;5035999;28;20052;-74
2023/04/30 14:31:58;;;;;;;6.47;2.58;;;;;;;;;;5047985;28;20043;-75
2023/04/30 14:34:24;;;;;;;6.95;2.80;;;;;;;;;;5045413;28;20594;-74